createdAt,value
2022-08-28T00:00:25.765Z,22.77
2022-08-28T00:02:53.380Z,22.56
2022-08-28T00:05:22.126Z,22.32
2022-08-28T00:07:49.182Z,22.02
2022-08-28T00:10:18.007Z,22.78
2022-08-28T00:12:47.040Z,22.67
2022-08-28T00:15:17.513Z,22.12
2022-08-28T00:17:44.836Z,22.45
2022-08-28T00:20:14.099Z,22.66
2022-08-28T00:22:41.618Z,22.54
2022-08-28T00:25:11.004Z,22.03
2022-08-28T00:27:53.404Z,21.84
2022-08-28T00:30:24.784Z,22.38
2022-08-28T00:32:53.606Z,22.25
2022-08-28T00:35:21.788Z,22.20
2022-08-28T00:37:48.455Z,22.33
2022-08-28T00:40:19.964Z,22.36
2022-08-28T00:42:58.493Z,21.83
2022-08-28T00:45:26.623Z,21.56
2022-08-28T00:47:53.273Z,22.02
2022-08-28T00:50:23.911Z,22.29
2022-08-28T00:52:55.567Z,21.88
2022-08-28T00:55:24.895Z,22.20
2022-08-28T00:57:56.540Z,22.17
2022-08-28T01:00:35.399Z,21.99
2022-08-28T01:03:03.332Z,22.10
2022-08-28T01:05:30.173Z,22.09
2022-08-28T01:07:58.888Z,21.89
2022-08-28T01:10:30.658Z,21.81
2022-08-28T01:12:57.925Z,21.81
2022-08-28T01:15:32.397Z,21.88
2022-08-28T01:18:07.849Z,21.83
2022-08-28T01:20:38.101Z,21.81
2022-08-28T01:23:53.197Z,21.31
2022-08-28T01:26:20.465Z,21.21
2022-08-28T01:28:47.505Z,21.43
2022-08-28T01:31:16.038Z,21.61
2022-08-28T01:33:44.779Z,21.63
2022-08-28T01:36:12.785Z,21.51
2022-08-28T01:38:42.491Z,21.61
2022-08-28T01:41:09.275Z,21.52
2022-08-28T01:43:36.626Z,20.92
2022-08-28T01:46:05.790Z,21.40
2022-08-28T01:48:36.212Z,21.24
2022-08-28T01:51:05.207Z,20.30
2022-08-28T01:53:32.612Z,21.09
2022-08-28T01:56:02.966Z,21.54
2022-08-28T01:58:34.928Z,21.49
2022-08-28T02:01:17.040Z,21.10
2022-08-28T02:03:43.925Z,20.94
2022-08-28T02:06:11.139Z,21.41
2022-08-28T02:08:37.749Z,20.80
2022-08-28T02:11:08.163Z,21.29
2022-08-28T02:13:39.975Z,21.11
2022-08-28T02:16:09.258Z,20.97
2022-08-28T02:18:37.873Z,21.13
2022-08-28T02:21:06.475Z,20.57
2022-08-28T02:23:33.698Z,21.12
2022-08-28T02:26:00.572Z,21.12
2022-08-28T02:28:27.390Z,20.49
2022-08-28T02:30:53.970Z,20.75
2022-08-28T02:33:20.993Z,21.05
2022-08-28T02:35:47.650Z,21.02
2022-08-28T02:38:14.224Z,20.92
2022-08-28T02:40:41.327Z,20.79
2022-08-28T02:43:07.927Z,20.88
2022-08-28T02:45:34.971Z,20.78
2022-08-28T02:48:02.076Z,19.93
2022-08-28T02:50:31.049Z,20.63
2022-08-28T02:52:57.987Z,20.09
2022-08-28T02:55:25.876Z,20.54
2022-08-28T02:57:54.572Z,20.07
2022-08-28T03:00:25.759Z,20.52
2022-08-28T03:02:53.224Z,20.35
2022-08-28T03:05:23.405Z,20.48
2022-08-28T03:07:51.231Z,20.50
2022-08-28T03:10:18.651Z,20.47
2022-08-28T03:12:45.445Z,19.97
2022-08-28T03:15:12.473Z,20.54
2022-08-28T03:17:39.168Z,20.55
2022-08-28T03:20:08.800Z,19.85
2022-08-28T03:22:54.079Z,20.46
2022-08-28T03:25:22.286Z,20.44
2022-08-28T03:27:49.639Z,20.45
2022-08-28T03:30:17.495Z,20.47
2022-08-28T03:32:44.086Z,20.11
2022-08-28T03:35:11.970Z,20.50
2022-08-28T03:37:39.027Z,20.45
2022-08-28T03:40:07.702Z,20.46
2022-08-28T03:42:35.146Z,19.90
2022-08-28T03:45:02.155Z,20.46
2022-08-28T03:47:29.626Z,20.48
2022-08-28T03:49:57.759Z,19.87
2022-08-28T03:52:24.890Z,20.59
2022-08-28T03:54:52.495Z,20.68
2022-08-28T03:57:20.677Z,20.76
2022-08-28T03:59:48.822Z,20.77
2022-08-28T04:02:15.559Z,20.70
2022-08-28T04:04:42.120Z,20.53
2022-08-28T04:07:08.734Z,20.21
2022-08-28T04:09:35.305Z,20.78
2022-08-28T04:12:02.072Z,20.81
2022-08-28T04:14:28.729Z,20.86
2022-08-28T04:16:59.698Z,19.12
2022-08-28T04:19:27.918Z,20.93
2022-08-28T04:21:54.446Z,20.71
2022-08-28T04:24:21.607Z,20.91
2022-08-28T04:26:48.549Z,20.86
2022-08-28T04:29:16.034Z,20.62
2022-08-28T04:31:42.833Z,20.20
2022-08-28T04:34:10.442Z,20.56
2022-08-28T04:36:38.169Z,20.61
2022-08-28T04:39:08.499Z,20.58
2022-08-28T04:41:37.527Z,20.34
2022-08-28T04:44:05.519Z,20.64
2022-08-28T04:46:32.337Z,20.15
2022-08-28T04:48:59.469Z,20.68
2022-08-28T04:51:26.625Z,20.68
2022-08-28T04:53:53.211Z,20.12
2022-08-28T04:56:19.793Z,20.61
2022-08-28T04:58:46.344Z,20.82
2022-08-28T05:01:18.639Z,20.67
2022-08-28T05:03:47.261Z,20.97
2022-08-28T05:06:15.796Z,21.08
2022-08-28T05:08:42.694Z,21.18
2022-08-28T05:11:33.616Z,21.31
2022-08-28T05:14:04.494Z,21.24
2022-08-28T05:16:32.099Z,21.09
2022-08-28T05:19:03.473Z,21.55
2022-08-28T05:21:30.111Z,21.59
2022-08-28T05:23:57.878Z,21.59
2022-08-28T05:26:27.242Z,21.14
2022-08-28T05:28:57.224Z,21.50
2022-08-28T05:31:25.212Z,21.04
2022-08-28T05:33:53.030Z,21.73
2022-08-28T05:36:22.855Z,21.30
2022-08-28T05:38:51.327Z,20.62
2022-08-28T05:41:28.343Z,21.72
2022-08-28T05:43:54.936Z,21.66
2022-08-28T05:46:22.322Z,21.67
2022-08-28T05:48:49.620Z,21.55
2022-08-28T05:51:20.093Z,21.73
2022-08-28T05:53:50.288Z,21.77
2022-08-28T05:56:19.770Z,18.86
2022-08-28T05:58:46.490Z,21.16
2022-08-28T06:01:16.647Z,21.67
2022-08-28T06:03:47.532Z,21.66
2022-08-28T06:06:14.103Z,21.37
2022-08-28T06:08:58.073Z,21.46
2022-08-28T06:11:26.867Z,21.50
2022-08-28T06:13:53.469Z,21.87
2022-08-28T06:16:21.160Z,21.88
2022-08-28T06:18:47.952Z,22.05
2022-08-28T06:21:14.568Z,22.27
2022-08-28T06:23:41.199Z,22.20
2022-08-28T06:26:07.807Z,22.57
2022-08-28T06:28:34.426Z,22.47
2022-08-28T06:31:23.784Z,22.89
2022-08-28T06:33:50.343Z,23.13
2022-08-28T06:36:17.085Z,22.67
2022-08-28T06:38:46.595Z,23.66
2022-08-28T06:41:14.589Z,23.70
2022-08-28T06:43:41.477Z,23.75
2022-08-28T06:46:08.633Z,23.33
2022-08-28T06:48:35.310Z,23.49
2022-08-28T06:51:06.850Z,23.34
2022-08-28T06:53:33.584Z,23.90
2022-08-28T06:56:06.466Z,24.07
2022-08-28T06:58:34.180Z,23.75
2022-08-28T07:01:03.197Z,24.67
2022-08-28T07:03:33.217Z,24.72
2022-08-28T07:06:01.412Z,25.05
2022-08-28T07:08:29.348Z,24.86
2022-08-28T07:10:58.075Z,25.17
2022-08-28T07:13:25.783Z,24.42
2022-08-28T07:15:52.434Z,25.47
2022-08-28T07:18:19.343Z,25.43
2022-08-28T07:20:54.353Z,25.54
2022-08-28T07:23:20.936Z,25.35
2022-08-28T07:25:47.562Z,26.10
2022-08-28T07:28:14.435Z,26.03
2022-08-28T07:30:41.115Z,26.08
2022-08-28T07:33:08.064Z,26.33
2022-08-28T07:35:34.702Z,25.95
2022-08-28T07:38:01.236Z,26.63
2022-08-28T07:40:27.884Z,26.69
2022-08-28T07:43:12.851Z,27.30
2022-08-28T07:45:39.520Z,27.37
2022-08-28T07:48:11.345Z,27.61
2022-08-28T07:50:38.603Z,26.83
2022-08-28T07:53:08.122Z,27.73
2022-08-28T07:55:34.750Z,28.00
2022-08-28T07:58:02.269Z,28.07
2022-08-28T08:00:28.831Z,28.14
2022-08-28T08:02:55.349Z,28.17
2022-08-28T08:05:21.971Z,27.98
2022-08-28T08:07:48.522Z,28.09
2022-08-28T08:10:15.167Z,28.15
2022-08-28T08:12:47.275Z,28.50
2022-08-28T08:15:13.889Z,28.68
2022-08-28T08:17:40.649Z,28.82
2022-08-28T08:20:08.578Z,28.63
2022-08-28T08:22:35.865Z,29.01
2022-08-28T08:25:05.062Z,29.21
2022-08-28T08:27:38.797Z,29.22
2022-08-28T08:30:08.258Z,29.10
2022-08-28T08:32:34.856Z,29.29
2022-08-28T08:35:01.771Z,29.38
2022-08-28T08:37:28.338Z,28.57
2022-08-28T08:39:55.167Z,29.70
2022-08-28T08:42:27.782Z,29.36
2022-08-28T08:44:58.929Z,29.68
2022-08-28T08:47:47.594Z,29.77
2022-08-28T08:50:28.978Z,29.86
2022-08-28T08:53:19.352Z,29.99
2022-08-28T08:55:52.620Z,30.04
2022-08-28T08:58:31.583Z,30.31
2022-08-28T09:01:20.443Z,30.49
2022-08-28T09:03:55.491Z,30.75
2022-08-28T09:06:59.530Z,30.83
2022-08-28T09:09:37.383Z,30.82
2022-08-28T09:12:07.973Z,30.28
2022-08-28T09:14:34.708Z,30.55
2022-08-28T09:17:01.675Z,30.63
2022-08-28T09:19:29.498Z,30.21
2022-08-28T09:21:56.412Z,30.95
2022-08-28T09:24:26.720Z,31.07
2022-08-28T09:27:05.928Z,31.32
2022-08-28T09:29:39.957Z,31.50
2022-08-28T09:32:25.893Z,31.49
2022-08-28T09:35:22.694Z,31.30
2022-08-28T09:37:49.293Z,31.22
2022-08-28T09:40:50.856Z,30.44
2022-08-28T09:43:26.700Z,30.47
2022-08-28T09:46:01.321Z,30.90
2022-08-28T09:48:39.922Z,30.99
2022-08-28T09:51:14.062Z,31.16
2022-08-28T09:54:21.894Z,31.24
2022-08-28T09:56:50.043Z,31.22
2022-08-28T09:59:19.281Z,31.52
2022-08-28T10:02:10.480Z,32.11
2022-08-28T10:04:50.058Z,32.58
2022-08-28T10:07:49.369Z,32.73
2022-08-28T10:10:53.696Z,32.42
2022-08-28T10:13:31.196Z,32.71
2022-08-28T10:16:37.533Z,32.87
2022-08-28T10:19:33.638Z,32.96
2022-08-28T10:22:21.205Z,32.99
2022-08-28T10:25:07.632Z,32.91
2022-08-28T10:27:54.690Z,33.06
2022-08-28T10:30:24.222Z,32.79
2022-08-28T10:32:59.997Z,33.47
2022-08-28T10:35:49.266Z,33.29
2022-08-28T10:38:19.741Z,32.65
2022-08-28T10:40:55.310Z,33.29
2022-08-28T10:43:43.598Z,33.15
2022-08-28T10:46:23.065Z,32.76
2022-08-28T10:49:01.161Z,32.32
2022-08-28T10:51:35.393Z,32.20
2022-08-28T10:54:37.200Z,32.00
2022-08-28T10:57:10.999Z,31.97
2022-08-28T10:59:41.914Z,31.55
2022-08-28T11:02:13.616Z,32.15
2022-08-28T11:04:40.588Z,32.26
2022-08-28T11:07:11.389Z,32.59
2022-08-28T11:09:46.014Z,32.72
2022-08-28T11:12:19.699Z,32.95
2022-08-28T11:14:49.545Z,32.91
2022-08-28T11:17:22.117Z,32.77
2022-08-28T11:19:57.878Z,32.61
2022-08-28T11:22:36.730Z,32.79
2022-08-28T11:25:13.881Z,33.00
2022-08-28T11:28:00.689Z,33.58
2022-08-28T11:30:34.080Z,34.30
2022-08-28T11:33:03.660Z,33.85
2022-08-28T11:35:30.161Z,35.89
2022-08-28T11:37:58.391Z,36.49
2022-08-28T11:40:28.022Z,37.94
2022-08-28T11:43:29.914Z,39.07
2022-08-28T11:45:56.460Z,39.58
2022-08-28T11:48:23.273Z,39.84
2022-08-28T11:50:54.880Z,40.54
2022-08-28T11:53:39.303Z,42.40
2022-08-28T11:56:33.287Z,43.07
2022-08-28T11:59:13.986Z,42.60
2022-08-28T12:01:40.691Z,40.80
2022-08-28T12:04:15.232Z,38.74
2022-08-28T12:06:45.019Z,37.67
2022-08-28T12:09:31.221Z,36.96
2022-08-28T12:12:05.235Z,34.66
2022-08-28T12:14:41.051Z,35.61
2022-08-28T12:17:30.498Z,34.73
2022-08-28T12:20:28.391Z,34.13
2022-08-28T12:22:59.038Z,33.85
2022-08-28T12:25:33.633Z,33.30
2022-08-28T12:28:07.960Z,33.03
2022-08-28T12:31:05.678Z,33.05
2022-08-28T12:33:49.713Z,32.74
2022-08-28T12:36:17.469Z,32.43
2022-08-28T12:38:50.873Z,32.32
2022-08-28T12:41:18.483Z,31.74
2022-08-28T12:43:50.496Z,32.02
2022-08-28T12:46:28.780Z,31.97
2022-08-28T12:49:01.222Z,30.99
2022-08-28T12:51:31.386Z,30.73
2022-08-28T12:54:04.019Z,30.74
2022-08-28T12:56:34.444Z,31.39
2022-08-28T12:59:35.604Z,31.29
2022-08-28T13:02:10.547Z,30.00
2022-08-28T13:04:51.924Z,30.82
2022-08-28T13:07:26.121Z,30.45
2022-08-28T13:09:55.037Z,30.34
2022-08-28T13:12:54.777Z,30.77
2022-08-28T13:15:42.766Z,30.71
2022-08-28T13:18:09.808Z,30.68
2022-08-28T13:20:38.075Z,30.61
2022-08-28T13:23:05.347Z,30.56
2022-08-28T13:25:35.837Z,30.29
2022-08-28T13:28:14.545Z,30.34
2022-08-28T13:30:41.379Z,30.13
2022-08-28T13:33:21.756Z,28.58
2022-08-28T13:35:49.069Z,30.19
2022-08-28T13:38:21.207Z,29.61
2022-08-28T13:40:58.803Z,30.16
2022-08-28T13:43:28.535Z,29.47
2022-08-28T13:45:55.149Z,30.13
2022-08-28T13:48:24.833Z,30.07
2022-08-28T13:51:07.559Z,29.73
2022-08-28T13:53:38.625Z,29.84
2022-08-28T13:56:06.283Z,29.96
2022-08-28T13:58:33.141Z,29.86
2022-08-28T14:01:00.529Z,29.92
2022-08-28T14:03:37.495Z,29.85
2022-08-28T14:06:14.148Z,29.86
2022-08-28T14:08:43.281Z,29.87
2022-08-28T14:11:13.098Z,29.12
2022-08-28T14:13:41.053Z,29.77
2022-08-28T14:16:16.766Z,29.52
2022-08-28T14:18:43.448Z,29.40
2022-08-28T14:21:10.011Z,29.92
2022-08-28T14:23:36.609Z,29.41
2022-08-28T14:26:05.460Z,28.74
2022-08-28T14:28:32.511Z,29.62
2022-08-28T14:30:59.117Z,29.74
2022-08-28T14:33:25.919Z,29.75
2022-08-28T14:35:52.952Z,29.67
2022-08-28T14:38:19.556Z,29.38
2022-08-28T14:40:46.261Z,29.36
2022-08-28T14:43:14.645Z,29.22
2022-08-28T14:45:49.966Z,29.03
2022-08-28T14:48:18.740Z,29.16
2022-08-28T14:50:49.145Z,29.09
2022-08-28T14:53:16.997Z,28.98
2022-08-28T14:55:49.390Z,28.66
2022-08-28T14:58:17.574Z,28.73
2022-08-28T15:00:48.098Z,28.65
2022-08-28T15:03:15.964Z,28.61
2022-08-28T15:05:42.888Z,27.74
2022-08-28T15:08:11.435Z,28.34
2022-08-28T15:10:39.482Z,28.39
2022-08-28T15:13:07.675Z,28.19
2022-08-28T15:15:36.386Z,28.24
2022-08-28T15:18:02.924Z,28.15
2022-08-28T15:20:29.909Z,27.89
2022-08-28T15:22:56.570Z,27.90
2022-08-28T15:25:23.331Z,27.85
2022-08-28T15:27:49.967Z,27.74
2022-08-28T15:30:16.551Z,27.67
2022-08-28T15:32:46.096Z,25.92
2022-08-28T15:35:12.732Z,27.50
2022-08-28T15:37:39.739Z,27.25
2022-08-28T15:40:25.624Z,27.37
2022-08-28T15:42:52.488Z,27.26
2022-08-28T15:45:20.152Z,27.13
2022-08-28T15:47:46.861Z,26.72
2022-08-28T15:50:16.038Z,26.99
2022-08-28T15:52:46.789Z,26.94
2022-08-28T15:55:13.786Z,26.85
2022-08-28T15:57:40.439Z,26.64
2022-08-28T16:00:10.332Z,26.72
2022-08-28T16:02:38.315Z,26.70
2022-08-28T16:05:06.056Z,25.97
2022-08-28T16:07:32.832Z,26.62
2022-08-28T16:09:59.410Z,25.64
2022-08-28T16:12:26.389Z,26.06
2022-08-28T16:14:53.132Z,26.06
2022-08-28T16:17:20.017Z,26.44
2022-08-28T16:19:46.746Z,25.87
2022-08-28T16:22:15.889Z,26.33
2022-08-28T16:24:43.108Z,26.29
2022-08-28T16:27:14.620Z,26.12
2022-08-28T16:29:42.021Z,25.83
2022-08-28T16:32:09.479Z,25.84
2022-08-28T16:34:38.954Z,26.03
2022-08-28T16:37:07.833Z,25.97
2022-08-28T16:39:35.425Z,25.43
2022-08-28T16:42:02.096Z,25.63
2022-08-28T16:44:28.740Z,25.57
2022-08-28T16:46:56.389Z,25.77
2022-08-28T16:49:23.748Z,25.68
2022-08-28T16:51:50.510Z,25.63
2022-08-28T16:54:21.417Z,25.31
2022-08-28T16:56:48.173Z,23.92
2022-08-28T16:59:23.472Z,25.40
2022-08-28T17:01:53.139Z,25.18
2022-08-28T17:04:21.219Z,25.38
2022-08-28T17:06:47.844Z,24.96
2022-08-28T17:09:14.546Z,24.77
2022-08-28T17:11:41.088Z,25.10
2022-08-28T17:14:09.086Z,24.86
2022-08-28T17:16:35.753Z,24.95
2022-08-28T17:19:02.716Z,24.89
2022-08-28T17:21:47.944Z,24.59
2022-08-28T17:24:14.843Z,24.72
2022-08-28T17:26:42.384Z,24.45
2022-08-28T17:29:09.511Z,24.34
2022-08-28T17:31:36.884Z,24.41
2022-08-28T17:34:03.779Z,24.53
2022-08-28T17:36:33.959Z,24.48
2022-08-28T17:39:08.060Z,23.19
2022-08-28T17:41:35.517Z,24.29
2022-08-28T17:44:04.951Z,24.35
2022-08-28T17:46:37.517Z,23.89
2022-08-28T17:49:05.884Z,24.24
2022-08-28T17:51:42.685Z,23.89
2022-08-28T17:54:15.608Z,23.80
2022-08-28T17:56:42.558Z,24.13
2022-08-28T17:59:10.132Z,24.07
2022-08-28T18:01:38.407Z,24.04
2022-08-28T18:04:05.519Z,24.01
2022-08-28T18:06:34.840Z,23.95
2022-08-28T18:09:01.609Z,23.87
2022-08-28T18:11:29.111Z,23.44
2022-08-28T18:13:55.765Z,23.79
2022-08-28T18:16:23.825Z,23.74
2022-08-28T18:18:51.925Z,23.70
2022-08-28T18:21:19.196Z,22.86
2022-08-28T18:23:46.336Z,23.65
2022-08-28T18:26:13.458Z,23.60
2022-08-28T18:28:40.391Z,23.60
2022-08-28T18:31:07.856Z,23.40
2022-08-28T18:33:37.112Z,23.46
2022-08-28T18:36:08.839Z,23.00
2022-08-28T18:38:35.635Z,23.44
2022-08-28T18:41:04.249Z,23.14
2022-08-28T18:43:31.418Z,23.13
2022-08-28T18:46:00.416Z,23.06
2022-08-28T18:48:31.542Z,22.97
2022-08-28T18:50:58.232Z,23.11
2022-08-28T18:53:25.103Z,23.12
2022-08-28T18:55:53.828Z,23.07
2022-08-28T18:58:22.059Z,21.96
2022-08-28T19:00:49.454Z,22.85
2022-08-28T19:03:18.763Z,22.83
2022-08-28T19:05:45.397Z,23.03
2022-08-28T19:08:14.114Z,22.98
2022-08-28T19:10:41.512Z,22.81
2022-08-28T19:13:08.579Z,22.93
2022-08-28T19:15:40.733Z,22.97
2022-08-28T19:18:11.273Z,22.65
2022-08-28T19:20:37.865Z,22.94
2022-08-28T19:23:07.182Z,22.16
2022-08-28T19:25:33.784Z,22.47
2022-08-28T19:28:01.682Z,22.38
2022-08-28T19:30:32.821Z,22.67
2022-08-28T19:33:00.908Z,22.18
2022-08-28T19:35:27.653Z,22.50
2022-08-28T19:37:54.404Z,22.47
2022-08-28T19:40:22.195Z,22.41
2022-08-28T19:42:54.301Z,22.40
2022-08-28T19:45:21.282Z,22.24
2022-08-28T19:47:48.249Z,22.41
2022-08-28T19:50:15.801Z,22.41
2022-08-28T19:52:46.424Z,22.25
2022-08-28T19:55:22.164Z,21.15
2022-08-28T19:57:49.308Z,21.81
2022-08-28T20:00:31.794Z,22.11
2022-08-28T20:02:59.368Z,21.57
2022-08-28T20:05:26.099Z,21.89
2022-08-28T20:07:52.750Z,21.70
2022-08-28T20:10:19.553Z,22.13
2022-08-28T20:12:48.357Z,22.11
2022-08-28T20:15:17.183Z,21.93
2022-08-28T20:17:49.525Z,21.90
2022-08-28T20:20:18.854Z,22.00
2022-08-28T20:22:45.567Z,21.98
2022-08-28T20:25:12.310Z,21.85
2022-08-28T20:27:41.701Z,21.97
2022-08-28T20:30:11.158Z,20.90
2022-08-28T20:32:39.962Z,21.81
2022-08-28T20:35:08.744Z,21.69
2022-08-28T20:37:41.047Z,20.69
2022-08-28T20:40:18.316Z,20.70
2022-08-28T20:42:47.692Z,21.33
2022-08-28T20:45:15.951Z,21.55
2022-08-28T20:47:43.428Z,21.02
2022-08-28T20:50:11.212Z,21.06
2022-08-28T20:52:38.518Z,21.44
2022-08-28T20:55:07.641Z,21.11
2022-08-28T20:57:35.238Z,20.63
2022-08-28T21:00:05.787Z,21.02
2022-08-28T21:02:33.084Z,21.16
2022-08-28T21:05:00.806Z,20.56
2022-08-28T21:07:27.905Z,21.23
2022-08-28T21:10:05.633Z,21.25
2022-08-28T21:12:38.865Z,20.47
2022-08-28T21:15:08.417Z,21.03
2022-08-28T21:17:35.586Z,20.76
2022-08-28T21:20:09.217Z,19.86
2022-08-28T21:22:37.508Z,20.89
2022-08-28T21:25:09.573Z,20.86
2022-08-28T21:27:38.091Z,20.86
2022-08-28T21:30:06.437Z,20.87
2022-08-28T21:32:34.080Z,20.17
2022-08-28T21:35:02.392Z,20.66
2022-08-28T21:37:29.432Z,20.84
2022-08-28T21:39:59.148Z,20.67
2022-08-28T21:42:26.883Z,20.76
2022-08-28T21:44:54.625Z,20.74
2022-08-28T21:47:23.096Z,20.70
2022-08-28T21:49:51.700Z,20.64
2022-08-28T21:52:19.686Z,19.94
2022-08-28T21:54:46.582Z,19.84
2022-08-28T21:57:13.575Z,20.64
2022-08-28T21:59:40.524Z,19.99
2022-08-28T22:02:07.476Z,20.20
2022-08-28T22:04:34.881Z,20.52
2022-08-28T22:07:02.103Z,20.23
2022-08-28T22:09:29.148Z,19.87
2022-08-28T22:11:56.112Z,20.42
2022-08-28T22:14:25.122Z,20.41
2022-08-28T22:16:52.269Z,20.34
2022-08-28T22:19:19.508Z,19.56
2022-08-28T22:22:04.506Z,20.12
2022-08-28T22:24:31.377Z,20.04
2022-08-28T22:26:58.307Z,19.40
2022-08-28T22:29:25.677Z,20.06
2022-08-28T22:31:53.008Z,19.93
2022-08-28T22:34:20.206Z,19.99
2022-08-28T22:36:47.115Z,19.94
2022-08-28T22:39:14.198Z,19.97
2022-08-28T22:41:42.061Z,19.57
2022-08-28T22:44:09.965Z,19.99
2022-08-28T22:46:36.834Z,19.94
2022-08-28T22:49:04.228Z,19.93
2022-08-28T22:51:33.569Z,19.98
2022-08-28T22:54:00.367Z,19.31
2022-08-28T22:56:27.043Z,19.98
2022-08-28T22:58:53.817Z,19.66
2022-08-28T23:01:24.252Z,19.81
2022-08-28T23:03:51.338Z,19.83
2022-08-28T23:06:18.743Z,19.63
2022-08-28T23:08:45.425Z,19.73
2022-08-28T23:11:12.142Z,19.72
2022-08-28T23:13:39.274Z,19.28
2022-08-28T23:16:06.150Z,19.16
2022-08-28T23:19:03.908Z,19.65
2022-08-28T23:21:26.423Z,19.69
2022-08-28T23:23:55.055Z,18.87
2022-08-28T23:26:22.725Z,19.28
2022-08-28T23:28:49.377Z,19.76
2022-08-28T23:31:16.125Z,19.70
2022-08-28T23:33:43.300Z,19.12
2022-08-28T23:36:10.537Z,19.11
2022-08-28T23:38:40.784Z,19.42
2022-08-28T23:41:10.836Z,19.41
2022-08-28T23:43:38.275Z,19.42
2022-08-28T23:46:06.440Z,18.77
2022-08-28T23:48:33.620Z,19.37
2022-08-28T23:51:01.995Z,19.37
2022-08-28T23:53:29.679Z,19.23
2022-08-28T23:55:57.408Z,19.01
2022-08-28T23:58:31.842Z,19.18
